Time;durP1;ratioP1;P1;durP2;ratioP2;P2;SDS_P1;SDS_P2;PMS_P1;PMS_P2;Temp;Humidity;BMP_temperature;BMP_pressure;BME280_temperature;BME280_humidity;BME280_pressure;Samples;Min_cycle;Max_cycle;Signal;HPM_P1;HPM_P2
2022/08/29 00:02:16;;;;;;;0.20;0.20;;;;;;;;;;1870624;76;26360;-47
2022/08/29 00:04:44;;;;;;;0.25;0.25;;;;;;;;;;1874494;76;26277;-43
2022/08/29 00:07:12;;;;;;;0.13;0.13;;;;;;;;;;1878388;75;26253;-44
2022/08/29 00:09:39;;;;;;;0.10;0.10;;;;;;;;;;1861684;76;26261;-44
2022/08/29 00:12:06;;;;;;;0.17;0.17;;;;;;;;;;1864120;76;26195;-44
2022/08/29 00:14:34;;;;;;;0.20;0.20;;;;;;;;;;1863875;76;26267;-46
2022/08/29 00:17:01;;;;;;;0.15;0.15;;;;;;;;;;1861651;75;26338;-46
2022/08/29 00:19:29;;;;;;;0.10;0.10;;;;;;;;;;1896665;75;27494;-47
2022/08/29 00:21:56;;;;;;;0.20;0.20;;;;;;;;;;1862387;75;26787;-46
2022/08/29 00:24:23;;;;;;;0.20;0.20;;;;;;;;;;1865807;76;26248;-45
2022/08/29 00:26:51;;;;;;;0.20;0.20;;;;;;;;;;1869551;76;26258;-45
2022/08/29 00:29:18;;;;;;;0.20;0.20;;;;;;;;;;1870710;76;26260;-44
2022/08/29 00:31:45;;;;;;;0.42;0.20;;;;;;;;;;1876492;76;26307;-44
2022/08/29 00:34:12;;;;;;;0.28;0.28;;;;;;;;;;1877852;76;26209;-44
2022/08/29 00:36:40;;;;;;;0.30;0.30;;;;;;;;;;1869655;75;26234;-45
2022/08/29 00:39:07;;;;;;;0.20;0.20;;;;;;;;;;1862362;76;26222;-44
2022/08/29 00:41:34;;;;;;;0.13;0.13;;;;;;;;;;1868857;76;26319;-46
2022/08/29 00:44:02;;;;;;;0.42;0.20;;;;;;;;;;1863170;76;26246;-47
2022/08/29 00:46:31;;;;;;;0.20;0.20;;;;;;;;;;1872820;76;26241;-45
2022/08/29 00:49:05;;;;;;;0.20;0.20;;;;;;;;;;1871692;75;26315;-44
2022/08/29 00:51:33;;;;;;;0.98;0.20;;;;;;;;;;1858831;75;26637;-46
2022/08/29 00:54:02;;;;;;;0.20;0.20;;;;;;;;;;1872056;76;26195;-44
2022/08/29 00:56:29;;;;;;;0.17;0.17;;;;;;;;;;1878903;76;26300;-45
2022/08/29 00:58:59;;;;;;;0.35;0.35;;;;;;;;;;1879446;76;26826;-44
2022/08/29 01:01:26;;;;;;;0.10;0.10;;;;;;;;;;1867840;76;26690;-46
2022/08/29 01:03:54;;;;;;;0.20;0.20;;;;;;;;;;1872835;76;26292;-45
2022/08/29 01:06:22;;;;;;;0.10;0.10;;;;;;;;;;1869939;75;27091;-43
2022/08/29 01:08:49;;;;;;;0.20;0.20;;;;;;;;;;1847442;76;26258;-46
2022/08/29 01:14:03;;;;;;;0.20;0.20;;;;;;;;;;1878903;76;26258;-43
2022/08/29 01:16:31;;;;;;;0.20;0.20;;;;;;;;;;1863165;76;26757;-46
2022/08/29 01:19:00;;;;;;;0.20;0.20;;;;;;;;;;1870866;76;26298;-44
2022/08/29 01:21:47;;;;;;;0.20;0.20;;;;;;;;;;1858513;75;26319;-47
2022/08/29 01:24:16;;;;;;;0.30;0.30;;;;;;;;;;1774729;79;26306;-46
2022/08/29 01:26:45;;;;;;;0.40;0.20;;;;;;;;;;1777186;79;26398;-44
2022/08/29 01:29:13;;;;;;;0.10;0.10;;;;;;;;;;1811106;76;26238;-44
2022/08/29 01:31:42;;;;;;;0.30;0.30;;;;;;;;;;1867946;75;26680;-46
2022/08/29 01:34:10;;;;;;;0.23;0.23;;;;;;;;;;1862354;76;26331;-44
2022/08/29 01:36:39;;;;;;;0.20;0.20;;;;;;;;;;1850017;76;26256;-45
2022/08/29 01:39:07;;;;;;;0.20;0.20;;;;;;;;;;1877947;76;26209;-47
2022/08/29 01:41:34;;;;;;;0.30;0.30;;;;;;;;;;1858439;76;26194;-42
2022/08/29 01:44:03;;;;;;;0.20;0.20;;;;;;;;;;1865635;75;26257;-44
2022/08/29 01:46:32;;;;;;;0.20;0.20;;;;;;;;;;1874128;75;26332;-44
2022/08/29 01:49:00;;;;;;;0.20;0.20;;;;;;;;;;1879425;75;26260;-44
2022/08/29 01:51:28;;;;;;;0.30;0.30;;;;;;;;;;1853796;76;26324;-47
2022/08/29 01:53:55;;;;;;;0.15;0.15;;;;;;;;;;1867706;76;27365;-45
2022/08/29 01:56:24;;;;;;;0.20;0.20;;;;;;;;;;1868640;76;26699;-43
2022/08/29 01:58:52;;;;;;;0.20;0.20;;;;;;;;;;1858442;76;26261;-43
2022/08/29 02:01:24;;;;;;;0.20;0.20;;;;;;;;;;1873914;76;26237;-48
2022/08/29 02:03:51;;;;;;;0.10;0.10;;;;;;;;;;1860104;76;26261;-46
2022/08/29 02:06:19;;;;;;;0.15;0.15;;;;;;;;;;1856185;76;26282;-46
2022/08/29 02:08:46;;;;;;;0.10;0.10;;;;;;;;;;1871120;76;26242;-45
2022/08/29 02:11:15;;;;;;;0.20;0.20;;;;;;;;;;1872311;76;26311;-47
2022/08/29 02:13:44;;;;;;;0.20;0.10;;;;;;;;;;1872764;76;26257;-45
2022/08/29 02:16:12;;;;;;;0.30;0.20;;;;;;;;;;1871769;76;26278;-44
2022/08/29 02:18:41;;;;;;;0.20;0.20;;;;;;;;;;1872703;76;26791;-44
2022/08/29 02:21:09;;;;;;;0.15;0.15;;;;;;;;;;1878039;76;26858;-48
2022/08/29 02:23:38;;;;;;;0.20;0.20;;;;;;;;;;1876044;76;26300;-45
2022/08/29 02:26:05;;;;;;;0.23;0.23;;;;;;;;;;1876339;76;26300;-45
2022/08/29 02:28:34;;;;;;;0.20;0.20;;;;;;;;;;1879273;76;26255;-47
2022/08/29 02:31:02;;;;;;;0.20;0.20;;;;;;;;;;1878292;76;26324;-48
2022/08/29 02:33:30;;;;;;;0.20;0.20;;;;;;;;;;1875927;76;26256;-48
2022/08/29 02:35:58;;;;;;;0.10;0.10;;;;;;;;;;1860471;76;26812;-48
2022/08/29 02:38:25;;;;;;;0.10;0.10;;;;;;;;;;1880277;75;26253;-45
2022/08/29 02:40:54;;;;;;;0.20;0.20;;;;;;;;;;1872879;76;26327;-45
2022/08/29 02:43:22;;;;;;;0.10;0.10;;;;;;;;;;1854679;76;26273;-44
2022/08/29 02:45:49;;;;;;;0.20;0.20;;;;;;;;;;1873379;76;26473;-46
2022/08/29 02:48:17;;;;;;;0.10;0.10;;;;;;;;;;1861158;76;26260;-46
2022/08/29 02:50:49;;;;;;;0.47;0.10;;;;;;;;;;1863679;76;26256;-43
2022/08/29 02:53:17;;;;;;;0.20;0.20;;;;;;;;;;1867014;76;27434;-46
2022/08/29 02:55:45;;;;;;;0.20;0.20;;;;;;;;;;1876403;76;26231;-44
2022/08/29 02:58:13;;;;;;;0.13;0.13;;;;;;;;;;1866894;76;26238;-43
2022/08/29 03:00:41;;;;;;;0.30;0.30;;;;;;;;;;1866743;76;26695;-43
2022/08/29 03:03:08;;;;;;;0.20;0.20;;;;;;;;;;1868123;76;26317;-45
2022/08/29 03:05:36;;;;;;;0.23;0.23;;;;;;;;;;1873504;76;26309;-47
2022/08/29 03:08:05;;;;;;;0.20;0.20;;;;;;;;;;1870651;76;26637;-44
2022/08/29 03:10:32;;;;;;;0.10;0.10;;;;;;;;;;1873106;76;26869;-44
2022/08/29 03:13:00;;;;;;;0.30;0.30;;;;;;;;;;1869505;76;26329;-45
2022/08/29 03:15:27;;;;;;;0.20;0.20;;;;;;;;;;1877488;76;26675;-44
2022/08/29 03:17:54;;;;;;;0.10;0.10;;;;;;;;;;1862864;76;26996;-44
2022/08/29 03:20:23;;;;;;;0.23;0.23;;;;;;;;;;1877202;76;26314;-45
2022/08/29 03:22:52;;;;;;;0.17;0.17;;;;;;;;;;1878103;76;26399;-43
2022/08/29 03:25:20;;;;;;;0.20;0.20;;;;;;;;;;1873222;76;26264;-46
2022/08/29 03:27:48;;;;;;;0.28;0.28;;;;;;;;;;1861937;76;26319;-47
2022/08/29 03:30:16;;;;;;;0.05;0.05;;;;;;;;;;1857418;76;26204;-46
2022/08/29 03:32:44;;;;;;;0.20;0.20;;;;;;;;;;1877249;76;26294;-44
2022/08/29 03:35:12;;;;;;;0.20;0.20;;;;;;;;;;1864913;76;26320;-46
2022/08/29 03:37:40;;;;;;;0.30;0.30;;;;;;;;;;1838681;77;26272;-46
2022/08/29 03:40:09;;;;;;;0.20;0.20;;;;;;;;;;1858177;76;26197;-43
2022/08/29 03:42:36;;;;;;;0.20;0.20;;;;;;;;;;1865038;76;26210;-43
2022/08/29 03:45:05;;;;;;;0.20;0.20;;;;;;;;;;1870413;76;26181;-43
2022/08/29 03:47:32;;;;;;;0.10;0.10;;;;;;;;;;1877750;76;26293;-44
2022/08/29 03:49:59;;;;;;;0.20;0.20;;;;;;;;;;1872338;76;26205;-47
2022/08/29 03:52:27;;;;;;;0.30;0.30;;;;;;;;;;1857460;76;26242;-44
2022/08/29 03:54:54;;;;;;;0.30;0.30;;;;;;;;;;1869602;76;26237;-45
2022/08/29 03:57:21;;;;;;;0.20;0.20;;;;;;;;;;1855783;76;26256;-45
2022/08/29 03:59:49;;;;;;;0.28;0.28;;;;;;;;;;1867183;75;26535;-49
2022/08/29 04:02:17;;;;;;;0.20;0.20;;;;;;;;;;1868238;76;26335;-46
2022/08/29 04:07:30;;;;;;;0.30;0.30;;;;;;;;;;1875213;75;25901;-44
2022/08/29 04:09:58;;;;;;;0.20;0.20;;;;;;;;;;1878281;75;26273;-44
2022/08/29 04:12:25;;;;;;;0.15;0.15;;;;;;;;;;1867654;76;26662;-44
2022/08/29 04:14:52;;;;;;;0.28;0.28;;;;;;;;;;1866635;76;27008;-46
2022/08/29 04:17:20;;;;;;;0.20;0.20;;;;;;;;;;1865530;75;26331;-44
2022/08/29 04:19:47;;;;;;;0.20;0.20;;;;;;;;;;1871514;76;26275;-45
2022/08/29 04:22:14;;;;;;;0.25;0.25;;;;;;;;;;1837582;78;26325;-45
2022/08/29 04:24:41;;;;;;;0.20;0.20;;;;;;;;;;1835316;77;26260;-44
2022/08/29 04:27:09;;;;;;;0.20;0.20;;;;;;;;;;1808487;77;26219;-44
2022/08/29 04:29:37;;;;;;;0.28;0.20;;;;;;;;;;1826097;77;26260;-48
2022/08/29 04:32:04;;;;;;;0.20;0.20;;;;;;;;;;1836754;77;26284;-48
2022/08/29 04:34:31;;;;;;;0.35;0.35;;;;;;;;;;1847134;76;26255;-44
2022/08/29 04:36:58;;;;;;;0.20;0.20;;;;;;;;;;1846764;77;26385;-45
2022/08/29 04:39:26;;;;;;;0.30;0.30;;;;;;;;;;1838562;77;26283;-45
2022/08/29 04:41:53;;;;;;;0.28;0.28;;;;;;;;;;1809857;78;26265;-44
2022/08/29 04:44:21;;;;;;;0.30;0.30;;;;;;;;;;1807110;78;26223;-45
2022/08/29 04:46:48;;;;;;;0.30;0.30;;;;;;;;;;1808589;78;26809;-47
2022/08/29 04:49:15;;;;;;;0.20;0.20;;;;;;;;;;1874481;75;26780;-46
2022/08/29 04:51:42;;;;;;;0.30;0.30;;;;;;;;;;1856850;76;26721;-45
2022/08/29 04:54:10;;;;;;;0.20;0.20;;;;;;;;;;1861161;76;26780;-44
2022/08/29 04:56:37;;;;;;;0.40;0.40;;;;;;;;;;1845479;76;27209;-47
2022/08/29 04:59:04;;;;;;;0.37;0.30;;;;;;;;;;1870207;76;26245;-45
2022/08/29 05:01:32;;;;;;;0.30;0.30;;;;;;;;;;1864822;76;26277;-45
2022/08/29 05:03:59;;;;;;;0.40;0.40;;;;;;;;;;1868886;76;26246;-47
2022/08/29 05:06:27;;;;;;;0.30;0.30;;;;;;;;;;1876141;76;26289;-47
2022/08/29 05:08:54;;;;;;;0.30;0.30;;;;;;;;;;1874625;76;27464;-46
2022/08/29 05:11:21;;;;;;;0.40;0.40;;;;;;;;;;1865371;76;26713;-44
2022/08/29 05:13:50;;;;;;;0.30;0.30;;;;;;;;;;1874177;76;26678;-43
2022/08/29 05:16:18;;;;;;;0.30;0.30;;;;;;;;;;1868273;75;26365;-46
2022/08/29 05:18:45;;;;;;;0.30;0.30;;;;;;;;;;1862539;76;26241;-44
2022/08/29 05:21:25;;;;;;;0.35;0.35;;;;;;;;;;1854126;76;26307;-44
2022/08/29 05:23:53;;;;;;;0.40;0.40;;;;;;;;;;1863465;76;26280;-44
2022/08/29 05:26:20;;;;;;;2.45;0.47;;;;;;;;;;1875243;76;26589;-48
2022/08/29 05:28:48;;;;;;;2.05;0.45;;;;;;;;;;1876350;76;26355;-44
2022/08/29 05:31:15;;;;;;;1.02;0.40;;;;;;;;;;1873689;76;26564;-45
2022/08/29 05:33:43;;;;;;;0.50;0.50;;;;;;;;;;1865846;76;26510;-44
2022/08/29 05:36:10;;;;;;;0.47;0.40;;;;;;;;;;1874285;76;26241;-44
2022/08/29 05:38:38;;;;;;;1.40;0.40;;;;;;;;;;1862133;76;26269;-47
2022/08/29 05:41:06;;;;;;;0.70;0.33;;;;;;;;;;1863512;76;26276;-48
2022/08/29 05:43:34;;;;;;;1.32;0.50;;;;;;;;;;1852052;76;26246;-44
2022/08/29 05:46:03;;;;;;;0.75;0.40;;;;;;;;;;1864368;76;26355;-45
2022/08/29 05:48:30;;;;;;;0.45;0.45;;;;;;;;;;1857773;76;26255;-43
2022/08/29 05:50:57;;;;;;;0.98;0.50;;;;;;;;;;1858078;76;26257;-46
2022/08/29 05:53:25;;;;;;;1.15;0.33;;;;;;;;;;1855203;75;26242;-46
2022/08/29 05:55:53;;;;;;;0.80;0.40;;;;;;;;;;1860635;76;26262;-44
2022/08/29 05:58:20;;;;;;;1.90;0.50;;;;;;;;;;1860546;76;26642;-43
2022/08/29 06:00:48;;;;;;;0.45;0.45;;;;;;;;;;1831114;76;26288;-45
2022/08/29 06:03:16;;;;;;;0.60;0.50;;;;;;;;;;1859047;76;26202;-44
2022/08/29 06:05:44;;;;;;;0.40;0.40;;;;;;;;;;1853913;76;26283;-45
2022/08/29 06:08:12;;;;;;;1.90;0.50;;;;;;;;;;1867049;76;26281;-43
2022/08/29 06:10:41;;;;;;;0.55;0.35;;;;;;;;;;1860279;76;26252;-43
2022/08/29 06:13:08;;;;;;;1.40;0.40;;;;;;;;;;1869970;76;26209;-46
2022/08/29 06:15:35;;;;;;;1.55;0.50;;;;;;;;;;1877306;76;26347;-47
2022/08/29 06:18:03;;;;;;;2.22;0.50;;;;;;;;;;1877698;76;26339;-45
2022/08/29 06:20:31;;;;;;;2.40;0.50;;;;;;;;;;1854345;75;26289;-44
2022/08/29 06:22:58;;;;;;;0.53;0.40;;;;;;;;;;1862964;76;26238;-43
2022/08/29 06:25:25;;;;;;;0.45;0.40;;;;;;;;;;1870914;76;26334;-45
2022/08/29 06:27:53;;;;;;;1.87;0.45;;;;;;;;;;1879748;76;26327;-43
2022/08/29 06:30:20;;;;;;;0.60;0.50;;;;;;;;;;1865184;76;26335;-46
2022/08/29 06:32:48;;;;;;;0.40;0.40;;;;;;;;;;1866017;75;26757;-44
2022/08/29 06:35:15;;;;;;;0.30;0.30;;;;;;;;;;1865990;75;26288;-43
2022/08/29 06:37:43;;;;;;;0.40;0.40;;;;;;;;;;1872068;75;26511;-44
2022/08/29 06:40:10;;;;;;;1.75;0.50;;;;;;;;;;1868433;75;26326;-44
2022/08/29 06:42:37;;;;;;;0.30;0.30;;;;;;;;;;1873375;76;26226;-46
2022/08/29 06:45:05;;;;;;;0.37;0.37;;;;;;;;;;1875361;76;26258;-43
2022/08/29 06:47:33;;;;;;;1.75;0.50;;;;;;;;;;1870180;76;26732;-48
2022/08/29 06:50:00;;;;;;;1.55;0.60;;;;;;;;;;1877929;76;26680;-45
2022/08/29 06:52:27;;;;;;;0.33;0.33;;;;;;;;;;1859530;75;26272;-44
2022/08/29 06:54:55;;;;;;;0.40;0.40;;;;;;;;;;1868928;75;26341;-43
2022/08/29 06:57:22;;;;;;;0.53;0.53;;;;;;;;;;1867997;76;26744;-47
2022/08/29 06:59:49;;;;;;;0.90;0.40;;;;;;;;;;1875506;76;26272;-43
2022/08/29 07:02:16;;;;;;;1.72;0.50;;;;;;;;;;1865665;76;26531;-41
2022/08/29 07:04:44;;;;;;;0.47;0.40;;;;;;;;;;1866516;76;26281;-40
2022/08/29 07:07:11;;;;;;;2.27;0.40;;;;;;;;;;1865158;76;26292;-42
2022/08/29 07:09:38;;;;;;;0.42;0.42;;;;;;;;;;1841606;77;26253;-43
2022/08/29 07:12:06;;;;;;;0.30;0.30;;;;;;;;;;1842867;77;26252;-41
2022/08/29 07:14:33;;;;;;;0.40;0.40;;;;;;;;;;1836433;77;26257;-41
2022/08/29 07:17:00;;;;;;;0.40;0.40;;;;;;;;;;1833288;77;26314;-45
2022/08/29 07:19:27;;;;;;;0.40;0.40;;;;;;;;;;1839360;76;26270;-43
2022/08/29 07:21:56;;;;;;;0.30;0.30;;;;;;;;;;1836892;77;26260;-43
2022/08/29 07:24:23;;;;;;;0.80;0.40;;;;;;;;;;1835750;77;26394;-45
2022/08/29 07:26:51;;;;;;;0.40;0.40;;;;;;;;;;1839914;77;26252;-44
2022/08/29 07:29:19;;;;;;;1.42;0.37;;;;;;;;;;1839870;77;26268;-42
2022/08/29 07:31:47;;;;;;;0.33;0.33;;;;;;;;;;1844234;76;26272;-43
2022/08/29 07:34:14;;;;;;;1.37;0.42;;;;;;;;;;1840851;77;27443;-43
2022/08/29 07:36:42;;;;;;;0.40;0.40;;;;;;;;;;1848457;76;26326;-57
2022/08/29 07:39:11;;;;;;;0.33;0.30;;;;;;;;;;1836200;77;26299;-43
2022/08/29 07:41:39;;;;;;;2.37;0.40;;;;;;;;;;1842147;77;26260;-43
2022/08/29 07:44:06;;;;;;;1.15;0.42;;;;;;;;;;1843661;76;26731;-44
2022/08/29 07:46:34;;;;;;;0.20;0.20;;;;;;;;;;1831563;77;26263;-46
2022/08/29 07:49:01;;;;;;;0.50;0.50;;;;;;;;;;1846722;77;26259;-43
2022/08/29 07:51:29;;;;;;;0.40;0.40;;;;;;;;;;1834868;76;26252;-43
2022/08/29 07:53:57;;;;;;;0.40;0.40;;;;;;;;;;1845393;77;26288;-42
2022/08/29 07:56:29;;;;;;;0.40;0.40;;;;;;;;;;1842311;76;26268;-45
2022/08/29 07:58:57;;;;;;;1.95;0.30;;;;;;;;;;1845531;77;26744;-43
2022/08/29 08:01:25;;;;;;;0.30;0.30;;;;;;;;;;1844079;77;26288;-41
2022/08/29 08:03:53;;;;;;;0.40;0.40;;;;;;;;;;1825266;76;26253;-41
2022/08/29 08:06:21;;;;;;;0.30;0.30;;;;;;;;;;1845047;77;26679;-46
2022/08/29 08:08:49;;;;;;;0.35;0.35;;;;;;;;;;1867470;76;26385;-42
2022/08/29 08:11:17;;;;;;;0.40;0.40;;;;;;;;;;1871700;76;26264;-42
2022/08/29 08:13:45;;;;;;;0.33;0.33;;;;;;;;;;1877352;76;26323;-42
2022/08/29 08:16:14;;;;;;;0.35;0.35;;;;;;;;;;1872537;76;26346;-48
2022/08/29 08:18:42;;;;;;;0.30;0.30;;;;;;;;;;1867162;76;26715;-43
2022/08/29 08:21:10;;;;;;;0.30;0.30;;;;;;;;;;1869533;76;26257;-47
2022/08/29 08:23:38;;;;;;;0.65;0.60;;;;;;;;;;1877154;75;26245;-42
2022/08/29 08:26:06;;;;;;;1.75;0.50;;;;;;;;;;1876879;76;26840;-45
2022/08/29 08:28:33;;;;;;;0.50;0.40;;;;;;;;;;1877519;75;26257;-41
2022/08/29 08:31:01;;;;;;;0.42;0.40;;;;;;;;;;1869479;76;26299;-44
2022/08/29 08:33:28;;;;;;;0.68;0.50;;;;;;;;;;1849365;76;26779;-43
2022/08/29 08:35:56;;;;;;;0.30;0.30;;;;;;;;;;1856669;76;26296;-43
2022/08/29 08:38:23;;;;;;;0.37;0.35;;;;;;;;;;1856492;75;27186;-44
2022/08/29 08:41:09;;;;;;;0.98;0.50;;;;;;;;;;1885991;75;26322;-42
2022/08/29 08:43:47;;;;;;;0.40;0.37;;;;;;;;;;1783491;79;26297;-43
2022/08/29 08:46:14;;;;;;;2.62;0.40;;;;;;;;;;1850046;76;26327;-42
2022/08/29 08:48:42;;;;;;;1.75;0.40;;;;;;;;;;1872017;76;26705;-43
2022/08/29 08:51:11;;;;;;;0.40;0.40;;;;;;;;;;1878347;76;26280;-44
2022/08/29 08:53:40;;;;;;;0.30;0.30;;;;;;;;;;1867402;75;26264;-40
2022/08/29 08:56:08;;;;;;;0.30;0.30;;;;;;;;;;1874996;76;26277;-40
2022/08/29 08:58:37;;;;;;;1.60;0.40;;;;;;;;;;1868226;76;26226;-43
2022/08/29 09:01:25;;;;;;;0.30;0.30;;;;;;;;;;1871030;75;26284;-45
2022/08/29 09:04:02;;;;;;;0.80;0.40;;;;;;;;;;1862766;76;26325;-42
2022/08/29 09:06:48;;;;;;;0.50;0.50;;;;;;;;;;1872668;75;26259;-40
2022/08/29 09:09:29;;;;;;;0.40;0.40;;;;;;;;;;1862297;76;26241;-43
2022/08/29 09:12:14;;;;;;;0.45;0.45;;;;;;;;;;1867813;76;26692;-40
2022/08/29 09:14:43;;;;;;;0.37;0.37;;;;;;;;;;1864852;76;26253;-41
2022/08/29 09:17:12;;;;;;;1.10;0.25;;;;;;;;;;1876679;76;26259;-41
2022/08/29 09:19:39;;;;;;;0.20;0.20;;;;;;;;;;1859596;76;26264;-43
2022/08/29 09:22:08;;;;;;;0.40;0.40;;;;;;;;;;1871221;76;26194;-40
2022/08/29 09:24:44;;;;;;;0.28;0.28;;;;;;;;;;1872383;76;26273;-45
2022/08/29 09:27:21;;;;;;;0.40;0.20;;;;;;;;;;1867760;76;26276;-43
2022/08/29 09:29:50;;;;;;;0.23;0.23;;;;;;;;;;1856400;76;26358;-40
2022/08/29 09:32:17;;;;;;;0.40;0.40;;;;;;;;;;1885460;75;26278;-41
2022/08/29 09:34:46;;;;;;;0.40;0.40;;;;;;;;;;1857155;76;27335;-42
2022/08/29 09:37:24;;;;;;;0.25;0.25;;;;;;;;;;1860745;76;26346;-44
2022/08/29 09:39:54;;;;;;;0.30;0.30;;;;;;;;;;1874503;75;26265;-42
2022/08/29 09:42:22;;;;;;;0.33;0.33;;;;;;;;;;1870119;76;26266;-41
2022/08/29 09:44:53;;;;;;;0.30;0.30;;;;;;;;;;1872678;76;26351;-51
2022/08/29 09:47:22;;;;;;;0.40;0.40;;;;;;;;;;1874742;76;26387;-43
2022/08/29 09:50:00;;;;;;;0.40;0.40;;;;;;;;;;1877898;76;26286;-43
2022/08/29 09:52:28;;;;;;;0.30;0.30;;;;;;;;;;1839079;76;26273;-41
2022/08/29 09:54:55;;;;;;;0.30;0.30;;;;;;;;;;1859831;76;26257;-48
2022/08/29 09:57:25;;;;;;;0.23;0.23;;;;;;;;;;1877588;76;26219;-46
2022/08/29 10:00:06;;;;;;;0.35;0.35;;;;;;;;;;1878849;76;26339;-42
2022/08/29 10:02:44;;;;;;;0.30;0.30;;;;;;;;;;1877313;76;26642;-45
2022/08/29 10:05:13;;;;;;;0.40;0.40;;;;;;;;;;1863544;76;26264;-41
2022/08/29 10:07:48;;;;;;;0.30;0.30;;;;;;;;;;1865192;76;26675;-42
2022/08/29 10:10:21;;;;;;;0.40;0.40;;;;;;;;;;1865075;76;26279;-42
2022/08/29 10:12:53;;;;;;;0.40;0.40;;;;;;;;;;1867285;76;26285;-40
2022/08/29 10:15:21;;;;;;;0.42;0.30;;;;;;;;;;1878805;75;26878;-40
2022/08/29 10:20:54;;;;;;;0.40;0.40;;;;;;;;;;1859161;76;26737;-44
2022/08/29 10:23:23;;;;;;;0.40;0.40;;;;;;;;;;1861422;76;26225;-43
2022/08/29 10:25:51;;;;;;;0.25;0.25;;;;;;;;;;1865486;76;26323;-44
2022/08/29 10:28:40;;;;;;;2.37;0.40;;;;;;;;;;1867147;76;26806;-45
2022/08/29 10:31:17;;;;;;;0.23;0.23;;;;;;;;;;1866872;76;26271;-42
2022/08/29 10:33:53;;;;;;;0.30;0.30;;;;;;;;;;1867214;75;26662;-46
2022/08/29 10:36:31;;;;;;;0.40;0.40;;;;;;;;;;1864786;76;26377;-41
2022/08/29 10:39:16;;;;;;;0.40;0.40;;;;;;;;;;1861326;75;27491;-45
2022/08/29 10:41:57;;;;;;;0.45;0.45;;;;;;;;;;1866989;76;26329;-43
2022/08/29 10:44:35;;;;;;;0.40;0.40;;;;;;;;;;1870899;75;26273;-42
2022/08/29 10:47:09;;;;;;;0.20;0.20;;;;;;;;;;1864865;76;26362;-44
2022/08/29 10:49:41;;;;;;;0.30;0.30;;;;;;;;;;1838354;76;26257;-45
2022/08/29 10:52:10;;;;;;;0.40;0.40;;;;;;;;;;1873055;76;26273;-42
2022/08/29 10:54:48;;;;;;;0.40;0.40;;;;;;;;;;1878744;76;26694;-49
2022/08/29 10:57:17;;;;;;;2.72;0.50;;;;;;;;;;1868857;75;26263;-43
2022/08/29 10:59:46;;;;;;;3.02;0.53;;;;;;;;;;1871692;76;26588;-41
2022/08/29 11:02:24;;;;;;;0.95;0.50;;;;;;;;;;1860876;76;26261;-43
2022/08/29 11:04:53;;;;;;;0.50;0.50;;;;;;;;;;1867955;76;26314;-44
2022/08/29 11:07:22;;;;;;;0.65;0.30;;;;;;;;;;1864880;76;26293;-46
2022/08/29 11:09:51;;;;;;;0.68;0.28;;;;;;;;;;1865874;75;26955;-43
2022/08/29 11:12:20;;;;;;;1.00;0.40;;;;;;;;;;1873410;75;26253;-42
2022/08/29 11:14:48;;;;;;;0.50;0.50;;;;;;;;;;1871171;76;26327;-45
2022/08/29 11:17:17;;;;;;;0.40;0.40;;;;;;;;;;1866550;76;27133;-45
2022/08/29 11:20:09;;;;;;;0.30;0.30;;;;;;;;;;1868160;76;26635;-45
2022/08/29 11:22:34;;;;;;;1.25;0.50;;;;;;;;;;1861743;76;26246;-45
2022/08/29 11:25:03;;;;;;;1.27;0.40;;;;;;;;;;1864764;76;26300;-42
2022/08/29 11:27:35;;;;;;;0.40;0.30;;;;;;;;;;1866742;76;26261;-47
2022/08/29 11:30:04;;;;;;;0.33;0.33;;;;;;;;;;1861754;75;26194;-43
2022/08/29 11:32:41;;;;;;;0.30;0.30;;;;;;;;;;1872891;75;26327;-45
2022/08/29 11:35:10;;;;;;;0.95;0.50;;;;;;;;;;1871162;76;26320;-44
2022/08/29 11:37:56;;;;;;;1.55;0.42;;;;;;;;;;1860419;76;26279;-46
2022/08/29 11:40:42;;;;;;;0.30;0.30;;;;;;;;;;1863440;76;26323;-45
2022/08/29 11:43:10;;;;;;;0.28;0.28;;;;;;;;;;1866096;76;26334;-43
2022/08/29 11:45:39;;;;;;;0.30;0.30;;;;;;;;;;1864641;76;26318;-44
2022/08/29 11:48:12;;;;;;;0.33;0.33;;;;;;;;;;1868870;76;26268;-45
2022/08/29 11:50:39;;;;;;;0.30;0.30;;;;;;;;;;1861620;76;26253;-44
2022/08/29 11:53:08;;;;;;;0.30;0.30;;;;;;;;;;1869734;76;26252;-42
2022/08/29 11:55:36;;;;;;;0.78;0.50;;;;;;;;;;1862943;76;26834;-44
2022/08/29 11:58:05;;;;;;;0.30;0.30;;;;;;;;;;1862598;76;26899;-42
2022/08/29 12:00:37;;;;;;;1.17;0.30;;;;;;;;;;1860809;75;26274;-41
2022/08/29 12:03:05;;;;;;;0.30;0.30;;;;;;;;;;1863236;75;26235;-40
2022/08/29 12:05:33;;;;;;;0.30;0.30;;;;;;;;;;1873297;76;26233;-43
2022/08/29 12:08:06;;;;;;;0.30;0.30;;;;;;;;;;1865291;75;26264;-42
2022/08/29 12:10:34;;;;;;;0.40;0.40;;;;;;;;;;1855025;76;26713;-44
2022/08/29 12:13:03;;;;;;;0.30;0.30;;;;;;;;;;1859834;76;26209;-42
2022/08/29 12:15:33;;;;;;;0.35;0.35;;;;;;;;;;1872364;76;26722;-41
2022/08/29 12:18:02;;;;;;;1.02;0.28;;;;;;;;;;1861286;76;26272;-43
2022/08/29 12:20:35;;;;;;;0.78;0.17;;;;;;;;;;1873854;75;26819;-45
2022/08/29 12:23:07;;;;;;;0.28;0.28;;;;;;;;;;1867243;76;26320;-42
2022/08/29 12:25:46;;;;;;;0.30;0.30;;;;;;;;;;1869130;76;26331;-48
2022/08/29 12:28:23;;;;;;;0.20;0.20;;;;;;;;;;1865658;75;26410;-47
2022/08/29 12:30:48;;;;;;;0.28;0.28;;;;;;;;;;1854049;76;26246;-44
2022/08/29 12:33:17;;;;;;;1.10;0.37;;;;;;;;;;1867836;75;26285;-50
2022/08/29 12:35:49;;;;;;;0.30;0.30;;;;;;;;;;1864383;76;26494;-43
2022/08/29 12:38:18;;;;;;;0.35;0.35;;;;;;;;;;1866102;76;26756;-44
2022/08/29 12:41:03;;;;;;;0.68;0.30;;;;;;;;;;1868858;75;26787;-43
2022/08/29 12:43:32;;;;;;;0.30;0.30;;;;;;;;;;1863197;76;26324;-45
2022/08/29 12:46:01;;;;;;;0.20;0.20;;;;;;;;;;1875298;75;26669;-46
2022/08/29 12:48:30;;;;;;;0.40;0.40;;;;;;;;;;1875475;76;26248;-43
2022/08/29 12:50:57;;;;;;;0.40;0.40;;;;;;;;;;1860005;76;26312;-45
2022/08/29 12:53:31;;;;;;;0.25;0.25;;;;;;;;;;1878720;76;26289;-43
2022/08/29 12:56:05;;;;;;;0.20;0.20;;;;;;;;;;1878936;76;26728;-42
2022/08/29 12:58:34;;;;;;;0.20;0.20;;;;;;;;;;1866099;76;26662;-45
2022/08/29 13:01:02;;;;;;;0.20;0.20;;;;;;;;;;1866151;76;26705;-43
2022/08/29 13:03:30;;;;;;;0.30;0.30;;;;;;;;;;1864839;75;26261;-44
2022/08/29 13:06:05;;;;;;;0.20;0.20;;;;;;;;;;1868450;76;26300;-43
2022/08/29 13:08:35;;;;;;;0.70;0.30;;;;;;;;;;1865960;76;26261;-42
2022/08/29 13:11:04;;;;;;;0.42;0.23;;;;;;;;;;1861528;76;26358;-45
2022/08/29 13:13:33;;;;;;;1.30;0.30;;;;;;;;;;1866996;76;26265;-43
2022/08/29 13:16:02;;;;;;;0.80;0.30;;;;;;;;;;1859956;76;26268;-45
2022/08/29 13:18:31;;;;;;;0.62;0.30;;;;;;;;;;1866999;76;26274;-43
2022/08/29 13:21:02;;;;;;;0.20;0.20;;;;;;;;;;1873201;76;26327;-40
2022/08/29 13:23:44;;;;;;;0.20;0.20;;;;;;;;;;1861187;76;26260;-44
2022/08/29 13:26:13;;;;;;;0.28;0.28;;;;;;;;;;1851072;76;26403;-43
2022/08/29 13:28:45;;;;;;;0.30;0.30;;;;;;;;;;1873162;76;26249;-47
2022/08/29 13:31:17;;;;;;;1.10;0.20;;;;;;;;;;1855969;76;26717;-39
2022/08/29 13:33:46;;;;;;;0.30;0.30;;;;;;;;;;1870260;76;26330;-40
2022/08/29 13:36:30;;;;;;;0.30;0.30;;;;;;;;;;1875314;76;26383;-39
2022/08/29 13:39:26;;;;;;;0.30;0.30;;;;;;;;;;1873029;76;26273;-42
2022/08/29 13:41:58;;;;;;;0.20;0.20;;;;;;;;;;1866671;75;26391;-45
2022/08/29 13:44:28;;;;;;;0.62;0.30;;;;;;;;;;1871158;75;26339;-46
2022/08/29 13:46:58;;;;;;;0.17;0.17;;;;;;;;;;1865825;76;26353;-47
2022/08/29 13:49:27;;;;;;;0.82;0.20;;;;;;;;;;1850552;76;26281;-43
2022/08/29 13:51:54;;;;;;;0.30;0.30;;;;;;;;;;1876088;76;26249;-42
2022/08/29 13:54:22;;;;;;;0.25;0.25;;;;;;;;;;1866798;76;26358;-43
2022/08/29 13:56:51;;;;;;;0.80;0.30;;;;;;;;;;1864957;76;26718;-45
2022/08/29 13:59:20;;;;;;;0.70;0.30;;;;;;;;;;1864562;76;26759;-43
2022/08/29 14:01:47;;;;;;;0.20;0.20;;;;;;;;;;1861771;76;27450;-41
2022/08/29 14:04:14;;;;;;;0.45;0.30;;;;;;;;;;1863648;76;26312;-45
2022/08/29 14:06:42;;;;;;;0.20;0.20;;;;;;;;;;1862038;76;26373;-43
2022/08/29 14:09:09;;;;;;;1.37;0.28;;;;;;;;;;1861575;76;26530;-44
2022/08/29 14:11:37;;;;;;;0.10;0.10;;;;;;;;;;1868906;76;26344;-43
2022/08/29 14:14:04;;;;;;;0.35;0.35;;;;;;;;;;1868684;76;26245;-44
2022/08/29 14:16:31;;;;;;;0.30;0.30;;;;;;;;;;1875454;75;26331;-50
2022/08/29 14:18:58;;;;;;;1.55;0.23;;;;;;;;;;1868021;76;26359;-45
2022/08/29 14:21:26;;;;;;;0.53;0.25;;;;;;;;;;1859456;76;26219;-42
2022/08/29 14:23:53;;;;;;;0.20;0.20;;;;;;;;;;1863940;76;26323;-41
2022/08/29 14:26:21;;;;;;;0.25;0.25;;;;;;;;;;1861414;76;26249;-48
2022/08/29 14:28:48;;;;;;;0.30;0.30;;;;;;;;;;1846725;77;26271;-42
2022/08/29 14:31:16;;;;;;;0.20;0.20;;;;;;;;;;1807257;78;26310;-42
2022/08/29 14:33:43;;;;;;;1.85;0.20;;;;;;;;;;1877655;76;25762;-46
2022/08/29 14:36:10;;;;;;;0.25;0.25;;;;;;;;;;1868440;76;26335;-47
2022/08/29 14:38:38;;;;;;;0.10;0.10;;;;;;;;;;1869671;76;26245;-43
2022/08/29 14:41:05;;;;;;;0.20;0.20;;;;;;;;;;1864697;76;26259;-43
2022/08/29 14:43:32;;;;;;;0.50;0.30;;;;;;;;;;1867354;76;26197;-41
2022/08/29 14:45:59;;;;;;;0.25;0.25;;;;;;;;;;1852130;76;26251;-42
2022/08/29 14:48:28;;;;;;;0.20;0.20;;;;;;;;;;1872949;75;26281;-45
2022/08/29 14:50:56;;;;;;;0.20;0.20;;;;;;;;;;1876028;76;26261;-42
2022/08/29 14:53:23;;;;;;;0.23;0.23;;;;;;;;;;1857277;76;26319;-42
2022/08/29 14:55:50;;;;;;;0.30;0.30;;;;;;;;;;1864371;76;26368;-44
2022/08/29 14:58:18;;;;;;;0.30;0.30;;;;;;;;;;1867692;75;26362;-42
2022/08/29 15:00:45;;;;;;;0.10;0.10;;;;;;;;;;1874139;76;26319;-42
2022/08/29 15:03:13;;;;;;;0.30;0.30;;;;;;;;;;1874128;76;26210;-45
2022/08/29 15:05:42;;;;;;;0.20;0.20;;;;;;;;;;1876513;76;26736;-41